Kolby — WDE7337 — position and weather

sailwx.info

Track history (hours):
 
Tides and Currents Weather Stations Pressure Air Temp Water Temp Dewpoint Dewpoint Depression Visibility Wind Speed Wind Dir Waves Ship Positions

Kolby

Owner: K&B Marine, Larose, LA. More information available from US FCC via Universal Licensing System and Coast Guard Vessel Documentation Center.

Last reported at 2017-Dec-11 13:31 UTC. Time now 2017-Dec-18 05:21 UTC.
Position N 29°13' W 090°41'.

Length 13 m.

Type: Tug. MMSI: 367392030.

Date/timePositionNaut miles runAvg speedWind from/ knotsBaromVisibWave heightAir tempDewpointWater temp
2017-Dec-11 13:31N 29°13' W 090°41'0 2.8
2017-Dec-11 13:29N 29°13' W 090°41'2 2.4
2017-Dec-11 12:49N 29°15' W 090°40'0 0.2
2017-Dec-11 12:28N 29°15' W 090°40'  
2017-Dec-04 04:31N 29°12' W 090°31'16 2.6
2017-Dec-03 22:06N 29°25' W 090°44'1 4.8
2017-Dec-03 22:00N 29°25' W 090°43'2 4.9
2017-Dec-03 21:30N 29°28' W 090°43'2 4.9
2017-Dec-03 21:01N 29°30' W 090°43'2 4.9
2017-Dec-03 20:30N 29°32' W 090°42'2 3.4
2017-Dec-03 20:00N 29°34' W 090°43'0 0.1
2017-Dec-03 19:30N 29°34' W 090°43'0 0.0
2017-Dec-03 19:00N 29°34' W 090°43'0 0.0
2017-Dec-03 18:31N 29°34' W 090°43'0 0.0
2017-Dec-03 18:00N 29°34' W 090°43'0 0.0
2017-Dec-03 17:30N 29°34' W 090°43'0 0.0
2017-Dec-03 17:00N 29°34' W 090°43'0 0.0
2017-Dec-03 16:31N 29°34' W 090°43'0 0.0
2017-Dec-03 16:01N 29°34' W 090°43'0 0.0
2017-Dec-03 15:30N 29°34' W 090°43'0 0.0
2017-Dec-03 15:01N 29°34' W 090°43'0 0.0
2017-Dec-03 14:31N 29°34' W 090°43'0 0.0
2017-Dec-03 14:01N 29°34' W 090°43'0 0.0
2017-Dec-03 13:30N 29°34' W 090°43'0 0.0
2017-Dec-03 13:01N 29°34' W 090°43'0 0.0
2017-Dec-03 00:21N 29°34' W 090°43'0 0.0
2017-Dec-02 12:25N 29°34' W 090°43'0 0.0
2017-Dec-02 12:00N 29°34' W 090°43'0 0.0
2017-Dec-02 11:30N 29°34' W 090°43'0 0.0
2017-Dec-02 01:47N 29°34' W 090°43'0 0.0
2017-Dec-02 01:30N 29°34' W 090°43'1 1.3
2017-Dec-02 01:00N 29°33' W 090°43'1 1.3
2017-Dec-02 00:30N 29°34' W 090°43'0 0.0
2017-Dec-01 22:48N 29°34' W 090°43'0 0.0
2017-Dec-01 22:31N 29°34' W 090°43'0 0.0
2017-Dec-01 22:00N 29°34' W 090°43'0 0.0
2017-Dec-01 21:28N 29°34' W 090°43'0 0.0
2017-Dec-01 21:01N 29°34' W 090°43'0 0.0
2017-Dec-01 20:30N 29°34' W 090°43'0 0.0
2017-Dec-01 20:01N 29°34' W 090°43'  
Track history (hours):
 
Tides and Currents Weather Stations Pressure Air Temp Water Temp Dewpoint Dewpoint Depression Visibility Wind Speed Wind Dir Waves Ship Positions

Kolby

Owner: K&B Marine, Larose, LA. More information available from US FCC via Universal Licensing System and Coast Guard Vessel Documentation Center.

Last reported at 2017-Dec-11 13:31 UTC. Time now 2017-Dec-18 05:21 UTC.
Position N 29°13' W 090°41'.

Length 13 m.

Type: Tug. MMSI: 367392030.

Date/timePositionNaut miles runAvg speedWind from/ knotsBaromVisibWave heightAir tempDewpointWater temp
2017-Dec-11 13:31N 29°13' W 090°41'0 2.8
2017-Dec-11 13:29N 29°13' W 090°41'2 2.4
2017-Dec-11 12:49N 29°15' W 090°40'0 0.2
2017-Dec-11 12:28N 29°15' W 090°40'  
2017-Dec-04 04:31N 29°12' W 090°31'16 2.6
2017-Dec-03 22:06N 29°25' W 090°44'1 4.8
2017-Dec-03 22:00N 29°25' W 090°43'2 4.9
2017-Dec-03 21:30N 29°28' W 090°43'2 4.9
2017-Dec-03 21:01N 29°30' W 090°43'2 4.9
2017-Dec-03 20:30N 29°32' W 090°42'2 3.4
2017-Dec-03 20:00N 29°34' W 090°43'0 0.1
2017-Dec-03 19:30N 29°34' W 090°43'0 0.0
2017-Dec-03 19:00N 29°34' W 090°43'0 0.0
2017-Dec-03 18:31N 29°34' W 090°43'0 0.0
2017-Dec-03 18:00N 29°34' W 090°43'0 0.0
2017-Dec-03 17:30N 29°34' W 090°43'0 0.0
2017-Dec-03 17:00N 29°34' W 090°43'0 0.0
2017-Dec-03 16:31N 29°34' W 090°43'0 0.0
2017-Dec-03 16:01N 29°34' W 090°43'0 0.0
2017-Dec-03 15:30N 29°34' W 090°43'0 0.0
2017-Dec-03 15:01N 29°34' W 090°43'0 0.0
2017-Dec-03 14:31N 29°34' W 090°43'0 0.0
2017-Dec-03 14:01N 29°34' W 090°43'0 0.0
2017-Dec-03 13:30N 29°34' W 090°43'0 0.0
2017-Dec-03 13:01N 29°34' W 090°43'0 0.0
2017-Dec-03 00:21N 29°34' W 090°43'0 0.0
2017-Dec-02 12:25N 29°34' W 090°43'0 0.0
2017-Dec-02 12:00N 29°34' W 090°43'0 0.0
2017-Dec-02 11:30N 29°34' W 090°43'0 0.0
2017-Dec-02 01:47N 29°34' W 090°43'0 0.0
2017-Dec-02 01:30N 29°34' W 090°43'1 1.3
2017-Dec-02 01:00N 29°33' W 090°43'1 1.3
2017-Dec-02 00:30N 29°34' W 090°43'0 0.0
2017-Dec-01 22:48N 29°34' W 090°43'0 0.0
2017-Dec-01 22:31N 29°34' W 090°43'0 0.0
2017-Dec-01 22:00N 29°34' W 090°43'0 0.0
2017-Dec-01 21:28N 29°34' W 090°43'0 0.0
2017-Dec-01 21:01N 29°34' W 090°43'0 0.0
2017-Dec-01 20:30N 29°34' W 090°43'0 0.0
2017-Dec-01 20:01N 29°34' W 090°43'  

Dump ship's entire track history